Time;durP1;ratioP1;P1;durP2;ratioP2;P2;SDS_P1;SDS_P2;PMS_P1;PMS_P2;Temp;Humidity;BMP_temperature;BMP_pressure;BME280_temperature;BME280_humidity;BME280_pressure;Samples;Min_cycle;Max_cycle;Signal;HPM_P1;HPM_P2
2023/03/24 00:00:59;;;;;;;4.93;3.90;;;10.80;99.90;;;;;;5077978;28;20448;-82
2023/03/24 00:03:28;;;;;;;4.63;3.03;;;10.90;1.00;;;;;;5079755;28;20448;-81
2023/03/24 00:06:00;;;;;;;3.73;3.40;;;10.90;99.90;;;;;;5079505;28;20496;-81
2023/03/24 00:08:30;;;;;;;5.90;3.53;;;10.80;99.90;;;;;;5081186;28;20521;-81
2023/03/24 00:11:00;;;;;;;4.83;4.10;;;10.80;1.00;;;;;;5085282;28;20493;-82
2023/03/24 00:13:27;;;;;;;4.03;3.63;;;10.80;1.00;;;;;;5090570;28;20448;-81
2023/03/24 00:15:54;;;;;;;4.10;3.80;;;10.80;99.90;;;;;;5094430;28;20443;-81
2023/03/24 00:18:24;;;;;;;6.13;4.27;;;10.80;1.00;;;;;;5094192;28;20443;-81
2023/03/24 00:20:57;;;;;;;4.17;3.87;;;10.70;1.00;;;;;;5088007;28;20440;-82
2023/03/24 00:23:25;;;;;;;3.97;3.57;;;10.70;1.00;;;;;;5084644;28;20439;-82
2023/03/24 00:26:02;;;;;;;4.83;4.07;;;10.70;1.00;;;;;;5084699;28;20479;-82
2023/03/24 00:28:30;;;;;;;4.73;4.33;;;10.70;1.00;;;;;;5083941;28;20411;-80
2023/03/24 00:30:57;;;;;;;4.60;4.00;;;10.80;1.00;;;;;;5083144;28;20447;-80
2023/03/24 00:33:24;;;;;;;4.57;4.10;;;10.80;1.00;;;;;;5084848;28;20731;-81
2023/03/24 00:35:51;;;;;;;5.07;4.67;;;10.80;1.00;;;;;;5083469;28;20436;-81
2023/03/24 00:38:19;;;;;;;4.53;3.67;;;10.70;1.00;;;;;;5082142;28;20426;-81
2023/03/24 00:40:47;;;;;;;3.73;3.43;;;10.70;1.00;;;;;;5085418;28;20553;-80
2023/03/24 00:43:15;;;;;;;5.60;3.90;;;10.70;1.00;;;;;;5087104;28;20512;-81
2023/03/24 00:45:45;;;;;;;5.70;5.00;;;10.90;1.00;;;;;;5087137;28;20456;-81
2023/03/24 00:48:12;;;;;;;4.63;4.23;;;10.70;1.00;;;;;;5083972;28;20457;-81
2023/03/24 00:50:40;;;;;;;4.63;4.23;;;10.60;1.00;;;;;;5082175;28;20517;-81
2023/03/24 00:53:08;;;;;;;3.90;3.60;;;10.60;1.00;;;;;;5082320;28;20452;-82
2023/03/24 00:55:36;;;;;;;4.37;3.97;;;10.70;1.00;;;;;;5081838;28;20426;-81
2023/03/24 00:58:04;;;;;;;4.83;4.30;;;10.60;1.00;;;;;;5082570;28;20472;-81
2023/03/24 01:00:32;;;;;;;4.90;4.23;;;10.70;1.00;;;;;;5082311;28;20447;-81
2023/03/24 01:03:02;;;;;;;5.57;5.07;;;10.70;1.00;;;;;;5089237;28;20455;-81
2023/03/24 01:05:31;;;;;;;4.33;4.03;;;10.70;1.00;;;;;;5091539;28;20486;-80
2023/03/24 01:08:02;;;;;;;4.10;3.80;;;10.70;1.00;;;;;;5083056;28;20464;-81
2023/03/24 01:10:31;;;;;;;4.87;3.90;;;10.70;1.00;;;;;;5082945;28;20438;-81
2023/03/24 01:12:59;;;;;;;3.30;3.10;;;10.70;1.00;;;;;;5082406;28;20485;-80
2023/03/24 01:15:29;;;;;;;4.37;3.97;;;10.40;1.00;;;;;;5093326;28;20448;-80
2023/03/24 01:18:00;;;;;;;4.00;3.60;;;10.70;1.00;;;;;;5093750;28;20450;-81
2023/03/24 01:20:31;;;;;;;3.73;3.30;;;10.70;1.00;;;;;;5083997;28;20438;-80
2023/03/24 01:22:58;;;;;;;4.00;3.63;;;10.60;1.00;;;;;;5082584;28;20545;-81
2023/03/24 01:25:26;;;;;;;6.27;3.50;;;10.60;1.00;;;;;;5081915;28;20455;-80
2023/03/24 01:27:53;;;;;;;3.93;3.70;;;10.60;1.00;;;;;;5081993;28;20495;-80
2023/03/24 01:30:24;;;;;;;3.70;3.40;;;10.70;1.00;;;;;;5081630;28;20510;-81
2023/03/24 01:32:51;;;;;;;4.17;3.80;;;10.70;1.00;;;;;;5082488;28;20412;-80
2023/03/24 01:35:20;;;;;;;4.37;3.60;;;10.70;1.00;;;;;;5081267;28;20848;-80
2023/03/24 01:37:47;;;;;;;4.27;3.87;;;10.70;1.00;;;;;;5080902;28;20490;-80
2023/03/24 01:40:18;;;;;;;4.87;3.57;;;10.70;1.00;;;;;;5080977;28;20516;-80
2023/03/24 01:42:45;;;;;;;3.43;3.20;;;10.70;1.00;;;;;;5082699;28;20440;-81
2023/03/24 01:45:44;;;;;;;3.67;3.37;;;10.70;1.00;;;;;;5084966;28;20444;-80
2023/03/24 01:48:15;;;;;;;3.60;3.40;;;10.80;1.00;;;;;;5037588;28;20484;-80
2023/03/24 01:50:46;;;;;;;4.10;3.70;;;10.80;1.00;;;;;;5081964;28;20444;-81
2023/03/24 01:53:14;;;;;;;3.60;3.40;;;10.80;1.00;;;;;;5081872;28;20426;-80
2023/03/24 01:55:43;;;;;;;3.60;3.27;;;11.00;1.00;;;;;;5086619;28;20478;-80
2023/03/24 01:58:10;;;;;;;3.80;3.60;;;10.70;1.00;;;;;;5091674;28;20413;-80
2023/03/24 02:00:38;;;;;;;3.40;3.10;;;10.70;1.00;;;;;;5092195;28;20414;-80
2023/03/24 02:03:08;;;;;;;4.10;3.80;;;10.80;1.00;;;;;;5085322;28;20419;-81
2023/03/24 02:05:41;;;;;;;4.50;4.10;;;10.80;1.00;;;;;;5080298;28;20439;-81
2023/03/24 02:08:14;;;;;;;3.40;3.20;;;10.90;1.00;;;;;;5080778;28;20467;-81
2023/03/24 02:10:42;;;;;;;3.93;3.00;;;10.90;1.00;;;;;;5080214;28;20402;-80
2023/03/24 02:13:10;;;;;;;4.60;3.43;;;10.80;1.00;;;;;;5081357;28;20939;-80
2023/03/24 02:15:56;;;;;;;3.70;3.40;;;10.60;1.00;;;;;;5082422;28;20862;-81
2023/03/24 02:18:31;;;;;;;4.07;3.43;;;10.80;1.00;;;;;;5081048;28;20408;-81
2023/03/24 02:21:40;;;;;;;3.77;3.50;;;10.80;1.00;;;;;;5094222;28;20519;-80
2023/03/24 02:24:36;;;;;;;3.93;3.63;;;10.80;1.00;;;;;;5095878;28;20411;-80
2023/03/24 02:27:16;;;;;;;4.03;3.73;;;10.90;1.00;;;;;;5039198;28;20487;-80
2023/03/24 02:30:30;;;;;;;3.40;3.20;;;10.90;1.00;;;;;;5095595;28;20432;-80
2023/03/24 02:33:27;;;;;;;4.23;3.83;;;11.00;1.00;;;;;;5060423;28;20455;-80
2023/03/24 02:36:31;;;;;;;4.37;3.33;;;10.90;1.00;;;;;;5094597;28;20462;-80
2023/03/24 02:39:27;;;;;;;4.17;3.50;;;10.90;1.00;;;;;;5094584;28;20459;-81
2023/03/24 02:41:58;;;;;;;3.20;3.00;;;10.90;1.00;;;;;;5090291;28;20481;-80
2023/03/24 02:44:30;;;;;;;3.80;3.50;;;11.00;1.00;;;;;;5086051;28;20431;-80
2023/03/24 02:47:05;;;;;;;4.50;3.30;;;11.00;99.90;;;;;;5080710;28;20530;-80
2023/03/24 02:49:39;;;;;;;3.47;3.20;;;11.00;99.90;;;;;;5079935;28;20430;-80
2023/03/24 02:52:11;;;;;;;3.73;3.40;;;11.00;1.00;;;;;;5080710;28;20478;-81
2023/03/24 02:54:47;;;;;;;2.80;2.70;;;11.00;1.00;;;;;;5081703;28;20430;-81
2023/03/24 02:57:21;;;;;;;3.27;2.97;;;10.80;1.00;;;;;;5083903;28;20492;-80
2023/03/24 02:59:53;;;;;;;3.30;3.00;;;11.00;1.00;;;;;;5088819;28;20436;-80
2023/03/24 03:02:23;;;;;;;4.27;3.87;;;11.00;1.00;;;;;;5095083;28;20450;-80
2023/03/24 03:04:54;;;;;;;3.43;3.13;;;10.90;1.00;;;;;;5094328;28;20440;-80
2023/03/24 03:07:25;;;;;;;4.00;3.47;;;10.80;1.00;;;;;;5093027;28;20488;-80
2023/03/24 03:09:57;;;;;;;3.40;3.10;;;10.80;22.70;;;;;;5093245;28;20507;-79
2023/03/24 03:12:27;;;;;;;3.33;3.13;;;10.80;43.90;;;;;;5093055;28;20797;-80
2023/03/24 03:14:58;;;;;;;4.43;4.03;;;10.70;69.30;;;;;;5092762;28;20444;-80
2023/03/24 03:17:29;;;;;;;3.77;3.43;;;10.60;99.90;;;;;;5092290;28;20462;-80
2023/03/24 03:20:06;;;;;;;3.40;3.20;;;10.80;99.90;;;;;;5092170;28;20439;-80
2023/03/24 03:22:41;;;;;;;3.77;3.50;;;10.80;99.90;;;;;;5092350;28;20430;-80
2023/03/24 03:25:13;;;;;;;3.67;3.37;;;10.70;99.90;;;;;;5090155;28;20416;-79
2023/03/24 03:27:42;;;;;;;3.90;3.60;;;10.70;99.90;;;;;;5090036;28;20505;-80
2023/03/24 03:30:17;;;;;;;3.33;3.13;;;10.70;99.90;;;;;;5090658;28;20422;-79
2023/03/24 03:32:53;;;;;;;3.83;3.40;;;10.70;99.90;;;;;;5090837;28;20434;-80
2023/03/24 03:35:26;;;;;;;6.20;3.70;;;10.80;99.90;;;;;;5088071;28;20416;-79
2023/03/24 03:38:01;;;;;;;3.83;3.53;;;10.70;99.90;;;;;;5082912;28;20484;-81
2023/03/24 03:40:35;;;;;;;6.33;3.77;;;10.70;99.90;;;;;;5079857;28;20927;-82
2023/03/24 03:43:03;;;;;;;4.10;3.80;;;10.70;99.90;;;;;;5081398;28;20406;-82
2023/03/24 03:45:30;;;;;;;5.40;4.07;;;10.60;99.90;;;;;;5084592;28;20428;-81
2023/03/24 03:47:57;;;;;;;4.70;3.50;;;10.70;99.90;;;;;;5083626;28;20519;-80
2023/03/24 03:50:23;;;;;;;4.80;4.40;;;10.70;99.90;;;;;;5087035;28;20482;-80
2023/03/24 03:52:52;;;;;;;4.43;3.70;;;10.80;99.90;;;;;;5090940;28;20442;-81
2023/03/24 03:55:19;;;;;;;5.47;4.77;;;10.80;99.90;;;;;;5087717;28;20421;-80
2023/03/24 03:57:48;;;;;;;4.20;3.80;;;10.80;99.90;;;;;;5079786;28;20512;-82
2023/03/24 04:00:18;;;;;;;6.17;4.50;;;10.80;99.90;;;;;;5079634;28;20431;-82
2023/03/24 04:02:57;;;;;;;8.10;7.30;;;10.80;99.90;;;;;;5080229;28;20437;-81
2023/03/24 04:05:29;;;;;;;4.63;4.17;;;11.10;99.90;;;;;;5079985;28;20937;-81
2023/03/24 04:08:17;;;;;;;4.57;4.00;;;10.80;99.90;;;;;;5079445;28;20479;-82
2023/03/24 04:11:21;;;;;;;4.87;3.93;;;10.80;99.90;;;;;;5088703;28;20804;-81
2023/03/24 04:14:02;;;;;;;4.57;4.07;;;10.80;99.90;;;;;;5087204;28;20472;-82
2023/03/24 04:16:45;;;;;;;5.77;4.50;;;10.90;99.90;;;;;;5084594;28;20467;-81
2023/03/24 04:19:22;;;;;;;6.33;5.07;;;10.90;99.90;;;;;;5095367;28;20424;-81
2023/03/24 04:22:04;;;;;;;4.73;4.37;;;10.80;99.90;;;;;;5093386;28;20417;-81
2023/03/24 04:24:48;;;;;;;5.10;4.60;;;10.90;99.90;;;;;;5080361;28;20402;-81
2023/03/24 04:27:26;;;;;;;5.03;4.53;;;10.90;99.90;;;;;;5079519;28;20557;-81
2023/03/24 04:30:05;;;;;;;6.67;5.30;;;10.90;99.90;;;;;;5079604;28;20410;-82
2023/03/24 04:32:41;;;;;;;5.50;5.00;;;10.90;99.90;;;;;;5080585;28;20436;-82
2023/03/24 04:35:13;;;;;;;6.53;5.93;;;11.20;99.90;;;;;;5080648;28;20424;-82
2023/03/24 04:37:41;;;;;;;5.90;5.40;;;10.90;99.90;;;;;;5079703;28;20501;-81
2023/03/24 04:40:10;;;;;;;5.67;4.87;;;10.90;99.90;;;;;;5078798;28;20466;-81
2023/03/24 04:42:41;;;;;;;6.30;5.70;;;11.00;99.90;;;;;;5079188;28;20478;-81
2023/03/24 04:45:11;;;;;;;5.93;5.20;;;11.00;99.90;;;;;;5078873;28;20419;-81
2023/03/24 04:47:42;;;;;;;6.23;5.70;;;11.00;99.90;;;;;;5077410;28;20486;-81
2023/03/24 04:50:11;;;;;;;6.57;5.90;;;11.00;99.90;;;;;;5089173;28;20443;-80
2023/03/24 04:52:38;;;;;;;6.10;5.50;;;11.10;99.90;;;;;;5090115;28;20450;-80
2023/03/24 04:55:28;;;;;;;6.23;5.60;;;11.10;99.90;;;;;;5085831;28;20447;-82
2023/03/24 04:57:54;;;;;;;5.27;4.87;;;11.10;99.90;;;;;;5082231;28;20798;-82
2023/03/24 05:00:23;;;;;;;5.77;5.27;;;11.10;99.90;;;;;;5081992;28;20451;-81
2023/03/24 05:02:53;;;;;;;5.80;5.13;;;11.20;99.90;;;;;;5087997;28;20426;-81
2023/03/24 05:05:21;;;;;;;5.50;5.10;;;11.20;99.90;;;;;;5089565;28;20493;-82
2023/03/24 05:07:48;;;;;;;7.50;6.70;;;11.20;99.90;;;;;;5086706;28;20523;-82
2023/03/24 05:10:15;;;;;;;6.20;5.63;;;11.00;99.90;;;;;;5087537;28;20456;-82
2023/03/24 05:12:42;;;;;;;6.60;5.90;;;11.20;99.90;;;;;;5084872;28;20446;-82
2023/03/24 05:15:09;;;;;;;7.07;6.47;;;11.20;99.90;;;;;;5083518;28;20515;-81
2023/03/24 05:17:38;;;;;;;6.47;5.80;;;11.30;99.90;;;;;;5084291;28;20523;-82
2023/03/24 05:20:09;;;;;;;10.80;5.13;;;11.30;99.90;;;;;;5081920;28;20419;-81
2023/03/24 05:22:36;;;;;;;6.27;5.63;;;11.30;99.90;;;;;;5081911;28;20427;-82
2023/03/24 05:25:04;;;;;;;6.23;5.63;;;11.30;99.90;;;;;;5081363;28;20450;-82
2023/03/24 05:27:31;;;;;;;6.27;5.67;;;11.40;99.90;;;;;;5081255;28;20855;-83
2023/03/24 05:29:58;;;;;;;8.50;7.20;;;11.40;99.90;;;;;;5083591;28;20501;-82
2023/03/24 05:32:25;;;;;;;12.43;6.70;;;11.40;99.90;;;;;;5084088;28;20450;-82
2023/03/24 05:34:53;;;;;;;6.30;5.70;;;11.50;99.90;;;;;;5083512;28;20490;-83
2023/03/24 05:37:20;;;;;;;5.13;4.73;;;11.90;99.90;;;;;;5082258;28;20473;-82
2023/03/24 05:39:47;;;;;;;8.90;7.60;;;11.60;99.90;;;;;;5082562;28;20475;-82
2023/03/24 05:42:14;;;;;;;11.23;8.33;;;11.70;99.90;;;;;;5085959;28;20448;-83
2023/03/24 05:44:41;;;;;;;6.50;5.90;;;11.60;99.90;;;;;;5085275;28;20451;-83
2023/03/24 05:47:08;;;;;;;8.17;5.77;;;11.60;99.90;;;;;;5081335;28;20463;-82
2023/03/24 05:49:35;;;;;;;6.50;5.67;;;;;;;;;;5082607;28;20446;-82
2023/03/24 05:52:04;;;;;;;8.13;5.23;;;11.80;99.90;;;;;;5080975;28;20426;-82
2023/03/24 05:54:32;;;;;;;6.20;5.60;;;11.80;99.90;;;;;;5080938;28;20457;-82
2023/03/24 05:56:59;;;;;;;5.60;5.10;;;11.80;99.90;;;;;;5080959;28;20479;-82
2023/03/24 05:59:26;;;;;;;6.00;5.40;;;11.80;99.90;;;;;;5081506;28;20451;-82
2023/03/24 06:01:55;;;;;;;5.30;4.80;;;11.80;99.90;;;;;;5086272;28;20452;-81
2023/03/24 06:04:22;;;;;;;5.30;4.80;;;11.80;99.90;;;;;;5096498;28;20443;-81
2023/03/24 06:06:49;;;;;;;5.90;4.63;;;11.90;99.90;;;;;;5097144;28;20464;-81
2023/03/24 06:09:18;;;;;;;10.20;6.13;;;12.20;99.90;;;;;;5096568;28;20482;-82
2023/03/24 06:11:45;;;;;;;5.63;5.13;;;11.90;99.90;;;;;;5097024;28;20530;-81
2023/03/24 06:14:12;;;;;;;6.40;5.30;;;12.20;99.90;;;;;;5096206;28;20462;-81
2023/03/24 06:16:39;;;;;;;6.07;5.47;;;12.00;99.90;;;;;;5094927;28;20540;-81
2023/03/24 06:19:06;;;;;;;4.90;4.40;;;12.00;99.90;;;;;;5082683;28;20510;-81
2023/03/24 06:21:33;;;;;;;16.23;7.10;;;12.00;99.90;;;;;;5080940;28;20498;-81
2023/03/24 06:24:00;;;;;;;6.00;5.50;;;12.00;99.90;;;;;;5084069;28;20452;-82
2023/03/24 06:26:29;;;;;;;5.77;5.20;;;12.00;99.90;;;;;;5087442;28;20533;-82
2023/03/24 06:28:57;;;;;;;4.83;4.43;;;12.00;99.90;;;;;;5081393;28;20483;-82
2023/03/24 06:31:26;;;;;;;4.90;4.50;;;12.00;99.90;;;;;;5083032;28;20477;-82
2023/03/24 06:33:53;;;;;;;5.40;4.80;;;12.10;99.90;;;;;;5090253;28;20448;-82
2023/03/24 06:36:22;;;;;;;5.90;4.20;;;12.20;99.90;;;;;;5089201;28;20503;-81
2023/03/24 06:38:49;;;;;;;6.10;4.53;;;12.20;99.90;;;;;;5083564;28;20442;-81
2023/03/24 06:41:16;;;;;;;6.33;4.30;;;12.20;99.90;;;;;;5080451;28;20452;-82
2023/03/24 06:43:44;;;;;;;7.33;5.03;;;12.20;99.90;;;;;;5079878;28;20451;-82
2023/03/24 06:46:11;;;;;;;5.20;4.73;;;12.20;99.90;;;;;;5080028;28;20478;-82
2023/03/24 06:48:38;;;;;;;6.80;6.30;;;12.20;99.90;;;;;;5079541;28;20487;-83
2023/03/24 06:51:06;;;;;;;5.13;4.73;;;12.30;99.90;;;;;;5080038;28;20457;-83
2023/03/24 06:53:32;;;;;;;6.30;4.60;;;12.30;99.90;;;;;;5080097;28;20497;-80
2023/03/24 06:55:59;;;;;;;4.97;4.57;;;12.40;99.90;;;;;;5079526;28;20482;-81
2023/03/24 06:58:26;;;;;;;5.33;4.67;;;12.40;99.90;;;;;;5080881;28;20422;-81
2023/03/24 07:00:55;;;;;;;4.80;4.40;;;12.50;99.90;;;;;;5080255;28;20459;-82
2023/03/24 07:03:23;;;;;;;5.57;5.07;;;11.60;99.90;;;;;;5081801;28;20457;-82
2023/03/24 07:05:51;;;;;;;5.60;5.10;;;12.60;99.90;;;;;;5085891;28;20565;-81
2023/03/24 07:08:18;;;;;;;5.23;4.73;;;12.60;99.90;;;;;;5085761;28;20885;-83
2023/03/24 07:10:45;;;;;;;4.90;4.50;;;12.60;99.90;;;;;;5080401;28;20796;-81
2023/03/24 07:13:12;;;;;;;7.33;5.57;;;12.60;99.90;;;;;;5080628;28;20486;-82
2023/03/24 07:15:38;;;;;;;5.57;5.07;;;12.80;99.90;;;;;;5082392;28;20451;-82
2023/03/24 07:18:06;;;;;;;4.67;4.37;;;12.80;99.90;;;;;;5080543;28;20449;-82
2023/03/24 07:20:34;;;;;;;10.00;4.87;;;12.80;99.90;;;;;;5088883;28;20481;-82
2023/03/24 07:23:01;;;;;;;7.80;5.10;;;12.90;99.90;;;;;;5090642;28;20474;-82
2023/03/24 07:25:27;;;;;;;5.03;4.53;;;12.60;99.90;;;;;;5084815;28;20453;-82
2023/03/24 07:27:55;;;;;;;6.07;4.73;;;12.90;99.90;;;;;;5082304;28;20480;-83
2023/03/24 07:30:22;;;;;;;5.50;5.03;;;12.90;99.90;;;;;;5082290;28;20426;-82
2023/03/24 07:32:49;;;;;;;7.40;5.30;;;13.00;99.90;;;;;;5079134;28;20456;-83
2023/03/24 07:35:18;;;;;;;5.23;4.73;;;13.00;99.90;;;;;;5078186;28;20471;-81
2023/03/24 07:37:45;;;;;;;4.57;4.20;;;13.10;99.90;;;;;;5078006;28;20471;-81
2023/03/24 07:40:14;;;;;;;6.93;4.67;;;13.00;99.90;;;;;;5087074;28;20458;-81
2023/03/24 07:42:44;;;;;;;4.27;3.97;;;13.40;72.80;;;;;;5087921;28;20455;-81
2023/03/24 07:45:12;;;;;;;6.67;4.47;;;13.60;11.20;;;;;;5082938;28;20461;-82
2023/03/24 07:47:39;;;;;;;7.90;4.40;;;13.50;1.00;;;;;;5081715;28;20574;-83
2023/03/24 07:50:09;;;;;;;6.00;5.40;;;13.50;1.00;;;;;;5080936;28;20453;-82
2023/03/24 07:52:38;;;;;;;5.00;3.57;;;13.40;1.00;;;;;;5080761;28;20576;-81
2023/03/24 07:55:07;;;;;;;6.57;4.60;;;13.40;1.00;;;;;;5080214;28;20493;-82
2023/03/24 07:57:36;;;;;;;8.20;4.20;;;13.40;1.00;;;;;;5080574;28;20463;-82
2023/03/24 08:00:09;;;;;;;4.53;3.90;;;13.50;99.90;;;;;;5080534;28;20489;-82
2023/03/24 08:02:36;;;;;;;4.10;3.80;;;13.30;15.80;;;;;;5079888;28;20427;-82
2023/03/24 08:05:04;;;;;;;4.80;4.40;;;13.20;78.90;;;;;;5080317;28;20407;-82
2023/03/24 08:07:31;;;;;;;5.80;5.30;;;13.20;99.90;;;;;;5079142;28;20483;-82
2023/03/24 08:09:59;;;;;;;4.70;4.30;;;13.10;99.90;;;;;;5079042;28;20490;-82
2023/03/24 08:12:26;;;;;;;5.20;4.70;;;12.90;99.90;;;;;;5078988;28;20452;-82
2023/03/24 08:14:53;;;;;;;5.83;5.33;;;13.00;99.90;;;;;;5080426;28;20449;-83
2023/03/24 08:17:20;;;;;;;6.00;5.07;;;13.00;99.90;;;;;;5078892;28;20560;-82
2023/03/24 08:19:47;;;;;;;5.97;4.80;;;13.00;99.90;;;;;;5078769;28;20484;-81
2023/03/24 08:22:14;;;;;;;5.33;4.83;;;12.90;99.90;;;;;;5090533;28;20456;-82
2023/03/24 08:24:41;;;;;;;5.90;5.30;;;12.90;99.90;;;;;;5092195;28;20466;-82
2023/03/24 08:27:09;;;;;;;5.23;4.83;;;12.80;99.90;;;;;;5090110;28;20522;-81
2023/03/24 08:29:36;;;;;;;6.67;5.17;;;12.80;99.90;;;;;;5087198;28;20541;-81
2023/03/24 08:32:04;;;;;;;4.87;4.43;;;12.80;99.90;;;;;;5086793;28;20422;-82
2023/03/24 08:34:30;;;;;;;5.47;4.87;;;12.80;99.90;;;;;;5084903;28;20516;-82
2023/03/24 08:36:57;;;;;;;5.80;5.00;;;12.80;99.90;;;;;;5082495;28;20554;-82
2023/03/24 08:39:24;;;;;;;7.80;5.67;;;12.80;99.90;;;;;;5082607;28;20485;-82
2023/03/24 08:41:53;;;;;;;6.43;5.03;;;12.80;99.90;;;;;;5082677;28;20428;-82
2023/03/24 08:44:21;;;;;;;6.10;5.53;;;12.80;99.90;;;;;;5082534;28;20446;-82
2023/03/24 08:46:48;;;;;;;5.43;4.93;;;12.80;99.90;;;;;;5083064;28;20558;-82
2023/03/24 08:49:15;;;;;;;5.87;5.37;;;12.80;99.90;;;;;;5082060;28;20481;-81
2023/03/24 08:51:41;;;;;;;5.53;5.03;;;12.80;99.90;;;;;;5082029;28;20535;-82
2023/03/24 08:54:11;;;;;;;5.17;4.70;;;12.80;99.90;;;;;;5082698;28;20535;-81
2023/03/24 08:56:38;;;;;;;5.53;4.53;;;12.80;99.90;;;;;;5081952;28;20479;-82
2023/03/24 08:59:05;;;;;;;5.27;4.87;;;12.80;99.90;;;;;;5082186;28;20444;-82
2023/03/24 09:01:34;;;;;;;5.83;5.10;;;12.90;99.90;;;;;;5081314;28;20533;-82
2023/03/24 09:04:01;;;;;;;6.30;5.47;;;12.90;99.90;;;;;;5081914;28;20520;-82
2023/03/24 09:06:29;;;;;;;5.57;5.07;;;13.00;99.90;;;;;;5091177;28;20484;-83
2023/03/24 09:08:56;;;;;;;7.20;5.77;;;13.00;99.90;;;;;;5088909;28;20493;-82
2023/03/24 09:11:23;;;;;;;6.40;5.30;;;13.10;99.90;;;;;;5086286;28;20542;-82
2023/03/24 09:13:50;;;;;;;5.70;5.23;;;13.10;99.90;;;;;;5080879;28;20528;-81
2023/03/24 09:16:18;;;;;;;6.40;4.80;;;13.10;99.90;;;;;;5081724;28;20474;-82
2023/03/24 09:18:47;;;;;;;5.87;5.20;;;13.20;99.90;;;;;;5082203;28;20455;-82
2023/03/24 09:21:14;;;;;;;7.80;5.50;;;13.20;92.90;;;;;;5081731;28;20533;-82
2023/03/24 09:23:41;;;;;;;6.30;5.37;;;13.20;75.20;;;;;;5080939;28;20474;-81
2023/03/24 09:26:07;;;;;;;5.33;4.83;;;13.20;67.90;;;;;;5082871;28;20477;-83
2023/03/24 09:28:34;;;;;;;5.03;4.53;;;13.20;88.20;;;;;;5082062;28;21024;-81
2023/03/24 09:31:04;;;;;;;5.90;5.30;;;13.20;80.10;;;;;;5082234;28;20451;-82
2023/03/24 09:33:33;;;;;;;6.57;4.70;;;13.20;70.20;;;;;;5082722;28;20539;-83
2023/03/24 09:36:04;;;;;;;8.57;5.87;;;13.20;43.00;;;;;;5082656;28;20566;-82
2023/03/24 09:38:32;;;;;;;7.00;6.40;;;13.30;23.50;;;;;;5081455;28;20439;-82
2023/03/24 09:41:01;;;;;;;5.33;4.73;;;13.40;1.00;;;;;;5080138;28;20897;-82
2023/03/24 09:43:36;;;;;;;6.40;5.77;;;13.50;1.00;;;;;;5081995;28;20425;-82
2023/03/24 09:46:06;;;;;;;6.13;4.50;;;13.60;1.00;;;;;;5086818;28;20467;-82
2023/03/24 09:48:40;;;;;;;5.23;4.83;;;13.80;1.00;;;;;;5091028;28;20447;-82
2023/03/24 09:51:12;;;;;;;7.00;6.27;;;14.00;1.00;;;;;;5093100;28;20431;-82
2023/03/24 09:53:45;;;;;;;7.40;5.80;;;14.10;1.00;;;;;;5095805;28;20435;-82
2023/03/24 09:56:15;;;;;;;5.50;5.00;;;14.30;99.90;;;;;;5095600;28;20468;-81
2023/03/24 09:58:43;;;;;;;6.27;5.43;;;14.50;99.90;;;;;;5096555;28;20432;-82
2023/03/24 10:01:14;;;;;;;5.87;5.37;;;14.50;99.90;;;;;;5095448;28;20506;-81
2023/03/24 10:03:42;;;;;;;5.80;5.30;;;14.60;99.90;;;;;;5093902;28;20948;-81
2023/03/24 10:06:20;;;;;;;4.83;4.33;;;14.70;82.90;;;;;;5094338;28;20483;-83
2023/03/24 10:08:53;;;;;;;5.00;4.60;;;14.70;1.00;;;;;;5092802;28;20467;-82
2023/03/24 10:11:27;;;;;;;6.57;4.40;;;14.70;1.00;;;;;;5091574;28;20431;-81
2023/03/24 10:14:13;;;;;;;6.77;4.07;;;15.00;1.00;;;;;;5086279;28;20427;-82
2023/03/24 10:16:49;;;;;;;6.87;5.37;;;14.80;1.00;;;;;;5085876;28;20507;-82
2023/03/24 10:19:26;;;;;;;5.23;4.73;;;14.70;1.00;;;;;;5083179;28;20441;-83
2023/03/24 10:22:02;;;;;;;4.87;4.10;;;14.70;1.00;;;;;;5080338;28;20837;-84
2023/03/24 10:24:36;;;;;;;18.40;5.17;;;14.70;99.90;;;;;;5078549;28;20444;-84
2023/03/24 10:27:10;;;;;;;15.50;5.23;;;14.70;99.90;;;;;;5079800;28;20472;-83
2023/03/24 10:29:38;;;;;;;27.57;5.30;;;14.30;1.00;;;;;;5086615;28;20479;-83
2023/03/24 10:32:14;;;;;;;8.70;4.80;;;14.60;1.00;;;;;;5087322;28;20451;-83
2023/03/24 10:34:45;;;;;;;5.93;4.20;;;14.50;1.00;;;;;;5082736;28;20450;-83
2023/03/24 10:37:15;;;;;;;19.77;8.03;;;14.40;99.90;;;;;;5085969;28;20478;-83
2023/03/24 10:39:42;;;;;;;22.93;6.20;;;14.60;99.90;;;;;;5088280;28;20772;-83
2023/03/24 10:42:15;;;;;;;11.03;5.37;;;14.80;99.90;;;;;;5087181;28;20499;-83
2023/03/24 10:44:42;;;;;;;86.03;13.27;;;15.10;97.60;;;;;;5084540;28;20508;-83
2023/03/24 10:47:13;;;;;;;14.27;4.70;;;15.30;1.00;;;;;;5083949;28;20479;-83
2023/03/24 10:49:52;;;;;;;14.77;4.30;;;15.40;99.90;;;;;;5085576;28;20475;-83
2023/03/24 10:52:23;;;;;;;4.97;3.53;;;15.50;99.90;;;;;;5086319;28;20500;-83
2023/03/24 10:54:55;;;;;;;6.07;3.40;;;15.50;1.00;;;;;;5085402;28;20429;-83
2023/03/24 10:57:23;;;;;;;3.40;3.10;;;15.50;1.00;;;;;;5084281;28;20467;-82
2023/03/24 10:59:54;;;;;;;6.97;4.43;;;15.40;99.90;;;;;;5084137;28;20436;-82
2023/03/24 11:02:24;;;;;;;5.83;4.27;;;15.40;99.90;;;;;;5082001;28;20918;-82
2023/03/24 11:04:55;;;;;;;7.27;5.63;;;15.30;99.90;;;;;;5081632;28;20457;-83
2023/03/24 11:07:24;;;;;;;7.13;4.63;;;15.30;99.90;;;;;;5084153;28;21034;-82
2023/03/24 11:09:59;;;;;;;9.17;7.40;;;15.40;1.00;;;;;;5087887;28;20482;-83
2023/03/24 11:12:29;;;;;;;17.53;10.53;;;15.40;1.00;;;;;;5088290;28;20462;-82
2023/03/24 11:15:13;;;;;;;59.73;16.10;;;15.40;1.00;;;;;;5084679;28;20492;-83
2023/03/24 11:17:41;;;;;;;21.90;7.70;;;15.50;99.90;;;;;;5083956;28;20484;-83
2023/03/24 11:20:17;;;;;;;6.10;4.27;;;15.50;99.90;;;;;;5082551;28;20474;-83
2023/03/24 11:22:55;;;;;;;18.37;3.87;;;15.60;99.90;;;;;;5086201;28;20455;-83
2023/03/24 11:25:26;;;;;;;11.77;6.87;;;15.60;99.90;;;;;;5085390;28;20439;-83
2023/03/24 11:27:57;;;;;;;14.63;7.33;;;15.90;99.90;;;;;;5085999;28;20436;-84
2023/03/24 11:30:33;;;;;;;7.17;3.60;;;15.90;1.00;;;;;;5085663;28;20492;-83
2023/03/24 11:33:02;;;;;;;3.27;3.07;;;15.90;1.00;;;;;;5086502;28;20437;-83
2023/03/24 11:35:30;;;;;;;4.43;2.90;;;16.10;1.00;;;;;;5082006;28;20455;-83
2023/03/24 11:38:04;;;;;;;4.20;3.87;;;15.80;1.00;;;;;;5078607;28;20426;-86
2023/03/24 11:40:31;;;;;;;5.30;3.27;;;16.00;99.90;;;;;;5080658;28;20423;-84
2023/03/24 11:42:59;;;;;;;3.97;3.67;;;16.00;61.10;;;;;;5080056;28;20448;-83
2023/03/24 11:45:34;;;;;;;13.77;3.50;;;16.10;19.20;;;;;;5081116;28;20427;-84
2023/03/24 11:48:04;;;;;;;4.50;3.13;;;16.20;12.50;;;;;;5080205;28;20813;-84
2023/03/24 11:50:34;;;;;;;3.70;2.80;;;16.30;1.00;;;;;;5082124;28;20540;-83
2023/03/24 11:53:11;;;;;;;3.23;2.90;;;16.20;1.00;;;;;;5081861;28;20539;-83
2023/03/24 11:55:46;;;;;;;3.73;3.43;;;16.50;99.90;;;;;;5081214;28;20447;-83
2023/03/24 11:58:24;;;;;;;2.87;2.67;;;16.40;1.00;;;;;;5081991;28;20829;-84
2023/03/24 12:00:57;;;;;;;3.60;3.37;;;16.30;1.00;;;;;;5083396;28;20444;-83
2023/03/24 12:04:06;;;;;;;2.73;2.53;;;16.30;1.00;;;;;;5083751;28;20468;-82
2023/03/24 12:06:49;;;;;;;7.10;3.37;;;16.30;1.00;;;;;;5045213;28;20494;-83
2023/03/24 12:09:24;;;;;;;3.30;3.10;;;16.40;1.00;;;;;;5090709;28;20449;-83
2023/03/24 12:12:10;;;;;;;5.67;3.53;;;16.30;1.00;;;;;;5099715;28;20534;-82
2023/03/24 12:14:50;;;;;;;3.57;3.20;;;16.20;1.00;;;;;;5098506;28;20449;-82
2023/03/24 12:17:22;;;;;;;4.00;3.70;;;16.10;62.60;;;;;;5100214;28;20451;-83
2023/03/24 12:20:14;;;;;;;6.03;3.87;;;16.10;1.00;;;;;;5100324;28;20483;-82
2023/03/24 12:22:50;;;;;;;3.67;3.47;;;16.20;1.00;;;;;;5084983;28;20478;-83
2023/03/24 12:25:46;;;;;;;4.13;3.73;;;16.20;1.00;;;;;;5085003;28;20431;-84
2023/03/24 12:28:35;;;;;;;5.17;4.00;;;16.20;1.00;;;;;;5085420;28;20486;-84
2023/03/24 12:31:14;;;;;;;3.20;3.00;;;16.30;1.00;;;;;;5085372;28;20473;-83
2023/03/24 12:33:53;;;;;;;3.07;2.70;;;16.20;1.00;;;;;;5085921;28;20418;-83
2023/03/24 12:36:32;;;;;;;3.63;3.00;;;16.20;1.00;;;;;;5095862;28;20469;-82
2023/03/24 12:39:09;;;;;;;3.93;3.57;;;16.10;1.00;;;;;;5097427;28;20453;-83
2023/03/24 12:42:01;;;;;;;6.07;4.83;;;16.00;1.00;;;;;;5092646;28;20498;-83
2023/03/24 12:44:50;;;;;;;3.03;2.87;;;15.90;1.00;;;;;;5086129;28;20443;-82
2023/03/24 12:47:30;;;;;;;3.63;3.33;;;15.90;1.00;;;;;;5086963;28;20466;-83
2023/03/24 12:50:05;;;;;;;8.20;3.13;;;15.90;1.00;;;;;;5086259;28;20513;-83
2023/03/24 12:53:05;;;;;;;4.50;3.13;;;15.90;1.00;;;;;;5086554;28;20435;-83
2023/03/24 12:55:39;;;;;;;3.20;2.87;;;16.20;1.00;;;;;;5086855;28;20499;-83
2023/03/24 12:58:14;;;;;;;3.80;3.50;;;15.90;1.00;;;;;;5087900;28;20439;-83
2023/03/24 13:00:46;;;;;;;4.30;4.00;;;15.80;1.00;;;;;;5084404;28;20469;-83
2023/03/24 13:03:16;;;;;;;5.67;3.57;;;15.60;1.00;;;;;;5081414;28;20438;-83
2023/03/24 13:05:49;;;;;;;3.80;3.50;;;15.40;99.90;;;;;;5081870;28;20431;-83
2023/03/24 13:08:28;;;;;;;4.33;3.93;;;15.40;99.90;;;;;;5081715;28;20455;-84
2023/03/24 13:11:01;;;;;;;5.70;3.50;;;15.30;45.00;;;;;;5081109;28;20471;-83
2023/03/24 13:13:34;;;;;;;3.57;3.30;;;15.20;99.90;;;;;;5080616;28;20927;-84